Time;durP1;ratioP1;P1;durP2;ratioP2;P2;SDS_P1;SDS_P2;PMS_P1;PMS_P2;Temp;Humidity;BMP_temperature;BMP_pressure;BME280_temperature;BME280_humidity;BME280_pressure;Samples;Min_cycle;Max_cycle;Signal;HPM_P1;HPM_P2
2022/05/19 00:00:34;;;;;;;9.33;3.90;;;;;;;21.18;45.03;98534.53;8481258;28;20401;-76
2022/05/19 00:04:37;;;;;;;7.17;3.77;;;;;;;21.14;44.94;98533.94;8481771;28;20609;-76
2022/05/19 00:08:40;;;;;;;7.50;4.40;;;;;;;21.15;44.94;98545.28;8481612;28;20431;-76
2022/05/19 00:12:45;;;;;;;7.33;4.17;;;;;;;21.10;44.87;98537.75;8481610;28;20390;-76
2022/05/19 00:16:48;;;;;;;6.37;3.70;;;;;;;20.97;45.20;98544.94;8481336;28;20232;-76
2022/05/19 00:20:51;;;;;;;6.30;3.37;;;;;;;20.92;45.74;98541.81;8481602;28;20418;-76
2022/05/19 00:24:54;;;;;;;7.03;3.60;;;;;;;20.89;45.07;98535.84;8481227;28;20221;-76
2022/05/19 00:28:59;;;;;;;7.47;3.83;;;;;;;20.83;45.41;98538.13;8481153;28;20221;-76
2022/05/19 00:33:02;;;;;;;7.97;3.60;;;;;;;20.77;45.74;98530.69;8480976;28;20231;-76
2022/05/19 00:37:06;;;;;;;7.17;3.87;;;;;;;20.73;45.37;98530.09;8480984;28;20225;-75
2022/05/19 00:41:10;;;;;;;4.67;3.40;;;;;;;20.70;45.99;98531.16;8481126;28;20252;-75
2022/05/19 00:45:16;;;;;;;6.90;3.70;;;;;;;20.64;45.52;98531.66;8480991;28;20231;-75
2022/05/19 00:49:22;;;;;;;4.57;3.50;;;;;;;20.64;45.53;98533.44;8480539;28;20227;-75
2022/05/19 00:53:29;;;;;;;9.43;4.20;;;;;;;20.55;45.44;98532.31;8480128;28;20235;-74
2022/05/19 00:57:35;;;;;;;7.43;3.97;;;;;;;20.54;45.79;98535.88;8480386;28;20232;-75
2022/05/19 01:01:41;;;;;;;4.77;3.50;;;;;;;20.51;45.83;98536.13;8480517;28;20226;-75
2022/05/19 01:05:46;;;;;;;6.97;3.60;;;;;;;20.43;46.08;98539.34;8480496;28;20288;-75
2022/05/19 01:09:49;;;;;;;9.37;4.03;;;;;;;20.40;46.35;98531.69;8480241;28;20520;-75
2022/05/19 01:13:52;;;;;;;7.57;3.70;;;;;;;20.26;46.31;98540.63;8486826;28;20233;-76
2022/05/19 01:17:59;;;;;;;12.60;4.40;;;;;;;20.17;47.14;98538.69;8486975;28;20437;-76
2022/05/19 01:22:11;;;;;;;6.87;3.63;;;;;;;20.15;47.21;98545.84;8486988;28;20229;-76
2022/05/19 01:26:21;;;;;;;4.77;3.60;;;;;;;20.12;47.72;98543.44;8486488;28;20238;-76
2022/05/19 01:30:25;;;;;;;6.40;3.47;;;;;;;20.11;48.22;98542.59;8460659;28;20265;-76
2022/05/19 01:34:35;;;;;;;7.50;4.10;;;;;;;20.00;47.78;98544.34;8452681;28;20240;-76
2022/05/19 01:38:37;;;;;;;8.67;3.97;;;;;;;19.92;49.00;98547.56;8452403;28;20529;-76
2022/05/19 01:42:48;;;;;;;5.87;3.90;;;;;;;19.84;49.04;98548.13;8452548;28;20414;-76
2022/05/19 01:46:59;;;;;;;5.83;4.17;;;;;;;19.79;49.24;98544.16;8452362;28;20236;-76
2022/05/19 01:51:06;;;;;;;4.93;3.90;;;;;;;19.73;49.48;98535.75;8452147;28;20226;-76
2022/05/19 01:55:15;;;;;;;5.43;3.90;;;;;;;19.64;49.28;98531.13;8452185;28;20426;-76
2022/05/19 01:59:20;;;;;;;6.07;3.77;;;;;;;19.67;49.37;98523.03;8451956;28;20307;-76
2022/05/19 02:03:28;;;;;;;6.70;3.77;;;;;;;19.67;49.29;98525.66;8451557;28;20239;-74
2022/05/19 02:07:34;;;;;;;7.80;4.10;;;;;;;19.61;49.94;98525.25;8451768;28;20233;-74
2022/05/19 02:11:45;;;;;;;8.23;4.17;;;;;;;19.57;49.81;98527.25;8451584;28;20238;-75
2022/05/19 02:15:50;;;;;;;7.03;4.27;;;;;;;19.49;49.41;98530.44;8451506;28;20228;-75
2022/05/19 02:19:57;;;;;;;7.70;4.10;;;;;;;19.46;48.84;98528.06;8451339;28;20235;-76
2022/05/19 02:24:02;;;;;;;7.60;4.00;;;;;;;19.37;49.24;98531.34;8450071;28;20235;-76
2022/05/19 02:28:08;;;;;;;7.63;4.17;;;;;;;19.38;48.71;98519.91;8451110;28;20426;-76
2022/05/19 02:32:11;;;;;;;7.20;4.37;;;;;;;19.29;47.86;98524.00;8451104;28;20398;-76
2022/05/19 02:36:16;;;;;;;9.77;4.03;;;;;;;19.30;48.05;98517.78;8450794;28;20240;-76
2022/05/19 02:40:23;;;;;;;7.47;4.23;;;;;;;19.32;47.58;98510.66;8450641;28;20232;-76
2022/05/19 02:44:25;;;;;;;7.27;3.90;;;;;;;19.24;47.72;98514.78;8450103;28;20229;-75
2022/05/19 02:48:29;;;;;;;5.40;3.87;;;;;;;19.29;47.71;98510.88;8450325;28;20242;-76
2022/05/19 02:52:34;;;;;;;8.53;4.60;;;;;;;19.28;47.28;98513.59;8450113;28;20239;-76
2022/05/19 02:56:38;;;;;;;4.70;3.77;;;;;;;19.26;47.36;98510.25;8450181;28;20242;-76
2022/05/19 03:00:42;;;;;;;6.97;4.00;;;;;;;19.19;46.82;98507.25;8450120;28;20254;-76
2022/05/19 03:04:45;;;;;;;8.90;3.93;;;;;;;19.12;47.24;98508.63;8449877;28;20229;-76
2022/05/19 03:08:49;;;;;;;7.90;4.17;;;;;;;19.05;47.62;98513.44;8449664;28;20557;-75
2022/05/19 03:12:55;;;;;;;7.87;4.20;;;;;;;19.06;46.91;98514.31;8449515;28;20232;-76
2022/05/19 03:16:58;;;;;;;6.50;4.20;;;;;;;18.94;46.49;98518.59;8449369;28;20540;-75
2022/05/19 03:21:00;;;;;;;7.70;4.07;;;;;;;18.90;47.14;98523.22;8449490;28;20223;-76
2022/05/19 03:25:07;;;;;;;9.23;4.30;;;;;;;18.86;47.00;98526.19;8449225;28;20236;-76
2022/05/19 03:29:10;;;;;;;8.83;4.00;;;;;;;18.75;47.41;98526.88;8449176;28;20237;-75
2022/05/19 03:33:13;;;;;;;5.87;4.00;;;;;;;18.75;46.60;98525.13;8448732;28;20243;-75
2022/05/19 03:37:16;;;;;;;7.53;3.83;;;;;;;18.79;46.92;98519.66;8448888;28;20245;-75
2022/05/19 03:41:20;;;;;;;6.53;3.67;;;;;;;18.76;46.74;98515.47;8448862;28;20223;-75
2022/05/19 03:45:24;;;;;;;9.53;3.60;;;;;;;18.71;46.84;98515.75;8448201;28;20234;-75
2022/05/19 03:49:27;;;;;;;6.60;3.37;;;;;;;18.69;46.52;98520.28;8448358;28;20231;-75
2022/05/19 03:53:30;;;;;;;6.87;3.60;;;;;;;18.69;45.73;98516.81;8448266;28;20259;-75
2022/05/19 03:57:34;;;;;;;6.27;3.47;;;;;;;18.70;45.82;98523.75;8448317;28;20238;-76
2022/05/19 04:01:39;;;;;;;6.63;3.60;;;;;;;18.72;47.08;98516.63;8448065;28;20401;-75
2022/05/19 04:05:42;;;;;;;7.50;3.67;;;;;;;18.71;46.17;98520.19;8449948;28;20245;-75
2022/05/19 04:09:45;;;;;;;7.40;3.90;;;;;;;18.77;45.80;98517.13;8481741;28;20243;-76
2022/05/19 04:13:49;;;;;;;8.17;3.57;;;;;;;18.76;46.40;98518.91;8481398;28;20249;-75
2022/05/19 04:17:52;;;;;;;6.03;3.50;;;;;;;18.79;46.09;98522.28;8481260;28;20237;-75
2022/05/19 04:21:55;;;;;;;5.47;3.50;;;;;;;18.71;45.54;98521.00;8481433;28;20410;-76
2022/05/19 04:25:58;;;;;;;8.23;3.27;;;;;;;18.73;45.03;98518.28;8481110;28;20394;-75
2022/05/19 04:30:03;;;;;;;7.87;3.47;;;;;;;18.67;44.27;98523.97;8481392;28;20225;-75
2022/05/19 04:34:13;;;;;;;7.37;3.73;;;;;;;18.78;44.25;98524.06;8481164;28;20234;-76
2022/05/19 04:38:17;;;;;;;6.27;3.90;;;;;;;18.60;43.76;98526.19;8481023;28;20236;-75
2022/05/19 04:42:20;;;;;;;9.50;3.87;;;;;;;18.81;44.40;98528.28;8481017;28;20435;-77
2022/05/19 04:46:24;;;;;;;6.67;3.53;;;;;;;18.70;44.05;98521.13;8463101;28;20510;-75
2022/05/19 04:50:27;;;;;;;9.37;3.53;;;;;;;18.58;43.85;98522.78;8480522;28;20270;-76
2022/05/19 04:54:30;;;;;;;7.00;3.67;;;;;;;18.36;44.04;98515.56;8480793;28;20240;-76
2022/05/19 04:58:34;;;;;;;9.20;3.80;;;;;;;18.67;44.24;98522.16;8480566;28;20246;-76
2022/05/19 05:02:38;;;;;;;7.73;3.57;;;;;;;18.51;44.55;98524.19;8480600;28;20237;-76
2022/05/19 05:06:41;;;;;;;7.27;4.20;;;;;;;18.45;44.59;98524.56;8481208;28;20229;-76
2022/05/19 05:10:44;;;;;;;7.70;3.53;;;;;;;18.55;44.50;98521.22;8480785;28;20234;-79
2022/05/19 05:14:47;;;;;;;6.43;3.10;;;;;;;18.17;45.41;98514.16;8480270;28;20226;-80
2022/05/19 05:18:52;;;;;;;5.67;3.27;;;;;;;18.27;45.24;98513.56;8480347;28;20231;-76
2022/05/19 05:22:54;;;;;;;4.20;3.40;;;;;;;18.34;44.91;98507.78;8479370;28;20222;-76
2022/05/19 05:26:57;;;;;;;7.17;2.87;;;;;;;18.22;45.54;98510.41;8480249;28;20230;-76
2022/05/19 05:31:00;;;;;;;9.00;3.53;;;;;;;18.28;44.61;98523.13;8480003;28;20226;-77
2022/05/19 05:35:08;;;;;;;5.83;3.07;;;;;;;18.65;43.47;98525.84;8480116;28;20248;-76
2022/05/19 05:39:11;;;;;;;11.17;3.00;;;;;;;18.79;43.62;98531.00;8479909;28;20230;-76
2022/05/19 05:43:16;;;;;;;7.00;3.00;;;;;;;18.84;42.38;98535.94;8480110;28;20234;-76
2022/05/19 05:47:19;;;;;;;4.73;2.90;;;;;;;18.81;42.18;98531.78;8479861;28;20253;-76
2022/05/19 05:51:24;;;;;;;6.13;2.77;;;;;;;18.74;41.73;98531.31;8479432;28;20221;-76
2022/05/19 05:55:27;;;;;;;7.73;3.03;;;;;;;18.87;40.91;98536.59;8479758;28;20233;-76
2022/05/19 05:59:30;;;;;;;9.40;2.57;;;;;;;19.02;40.63;98529.44;8485114;28;20230;-76
2022/05/19 06:03:33;;;;;;;7.07;3.33;;;;;;;19.02;41.02;98532.06;8485340;28;20225;-76
2022/05/19 06:07:37;;;;;;;6.03;2.47;;;;;;;19.03;40.86;98531.09;8485182;28;20241;-74
2022/05/19 06:11:41;;;;;;;6.27;2.63;;;;;;;19.55;40.11;98529.16;8485242;28;20234;-75
2022/05/19 06:15:44;;;;;;;4.53;2.70;;;;;;;19.52;40.19;98516.28;8485159;28;20420;-77
2022/05/19 06:19:47;;;;;;;6.17;2.63;;;;;;;19.71;39.12;98515.78;8485078;28;20502;-76
2022/05/19 06:23:52;;;;;;;6.93;2.60;;;;;;;19.89;39.10;98517.06;8484956;28;20407;-75
2022/05/19 06:27:55;;;;;;;5.10;2.70;;;;;;;20.08;39.12;98507.81;8484908;28;20236;-75
2022/05/19 06:31:58;;;;;;;7.97;3.20;;;;;;;20.37;38.08;98508.25;8484808;28;20562;-75
2022/05/19 06:36:02;;;;;;;8.47;2.83;;;;;;;20.43;37.17;98509.59;8484583;28;20551;-76
2022/05/19 06:40:09;;;;;;;10.57;2.80;;;;;;;20.15;37.57;98506.41;8484213;28;20228;-75
2022/05/19 06:44:13;;;;;;;5.00;2.40;;;;;;;20.39;37.36;98506.34;8484485;28;20458;-75
2022/05/19 06:48:15;;;;;;;7.60;2.57;;;;;;;20.32;37.61;98505.13;8484151;28;20314;-76
2022/05/19 06:52:21;;;;;;;6.87;2.73;;;;;;;20.50;36.45;98506.38;8484133;28;20531;-75
2022/05/19 06:56:25;;;;;;;5.93;2.50;;;;;;;20.88;35.98;98501.75;8483630;28;20227;-75
2022/05/19 07:00:30;;;;;;;9.73;2.53;;;;;;;20.86;36.14;98498.38;8483664;28;20303;-75
2022/05/19 07:04:33;;;;;;;6.90;2.50;;;;;;;21.19;35.52;98497.53;8483540;28;20243;-76
2022/05/19 07:08:38;;;;;;;6.17;2.67;;;;;;;21.25;35.88;98498.84;8482699;28;20239;-76
2022/05/19 07:12:44;;;;;;;5.70;2.83;;;;;;;21.46;35.12;98504.22;8483415;28;20241;-76
2022/05/19 07:16:48;;;;;;;6.73;2.60;;;;;;;21.89;34.99;98499.88;8483339;28;20225;-76
2022/05/19 07:20:52;;;;;;;6.90;2.67;;;;;;;21.97;33.94;98500.91;8483208;28;20496;-76
2022/05/19 07:24:55;;;;;;;6.87;2.37;;;;;;;22.10;34.66;98491.97;8482948;28;20418;-76
2022/05/19 07:28:59;;;;;;;8.00;2.40;;;;;;;21.60;35.03;98489.91;8482914;28;20424;-76
2022/05/19 07:33:02;;;;;;;9.87;4.00;;;;;;;22.23;35.39;98498.72;8482805;28;20236;-76
2022/05/19 07:37:06;;;;;;;11.07;5.07;;;;;;;22.48;34.77;98503.78;8482716;28;20429;-76
2022/05/19 07:41:08;;;;;;;9.87;3.53;;;;;;;22.92;33.11;98505.22;8482501;28;20248;-76
2022/05/19 07:45:14;;;;;;;9.87;3.43;;;;;;;23.42;32.89;98496.53;8482280;28;20241;-76
2022/05/19 07:49:17;;;;;;;8.20;2.13;;;;;;;23.43;32.15;98493.72;8482165;28;20241;-76
2022/05/19 07:53:20;;;;;;;6.87;3.00;;;;;;;23.85;32.05;98503.25;8481983;28;20451;-75
2022/05/19 07:57:23;;;;;;;10.63;2.30;;;;;;;24.05;31.27;98500.63;8481595;28;20231;-75
2022/05/19 08:01:29;;;;;;;19.23;2.93;;;;;;;24.53;30.69;98507.66;8481190;28;20237;-73
2022/05/19 08:05:33;;;;;;;8.50;2.53;;;;;;;24.23;30.67;98504.19;8437762;28;20337;-76
2022/05/19 08:18:21;;;;;;;7.73;2.20;;;;;;;24.96;31.25;98501.78;8414984;28;20244;-76
2022/05/19 08:22:24;;;;;;;9.27;2.63;;;;;;;25.13;30.33;98501.97;8412768;28;20237;-75
2022/05/19 08:26:27;;;;;;;9.50;2.30;;;;;;;25.39;30.17;98496.00;8413793;28;20234;-75
2022/05/19 08:30:30;;;;;;;4.53;1.97;;;;;;;25.65;30.29;98491.63;8413642;28;20241;-77
2022/05/19 08:34:35;;;;;;;6.97;2.30;;;;;;;25.39;30.35;98490.72;8413667;28;20447;-77
2022/05/19 08:38:39;;;;;;;5.47;2.13;;;;;;;25.61;30.49;98490.28;8413694;28;20256;-75
2022/05/19 08:42:46;;;;;;;8.73;2.17;;;;;;;25.96;29.78;98485.97;8413653;28;20243;-75
2022/05/19 08:46:51;;;;;;;10.60;2.33;;;;;;;25.23;30.40;98475.47;8413801;28;20234;-79
2022/05/19 08:50:56;;;;;;;6.73;2.00;;;;;;;26.28;29.95;98476.59;8423753;28;20244;-76
2022/05/19 08:55:00;;;;;;;7.40;2.23;;;;;;;26.05;30.15;98482.41;8447175;28;20226;-76
2022/05/19 08:59:18;;;;;;;5.60;2.30;;;;;;;26.55;28.86;98477.44;8446981;28;20237;-76
2022/05/19 09:03:25;;;;;;;7.67;1.80;;;;;;;26.41;29.68;98465.56;8445190;28;20233;-77
2022/05/19 09:11:58;;;;;;;5.47;2.43;;;;;;;26.51;29.61;98450.34;8412934;28;20421;-76
2022/05/19 09:16:03;;;;;;;7.90;2.07;;;;;;;26.76;28.74;98446.00;8413353;28;20235;-74
2022/05/19 09:20:11;;;;;;;5.63;2.27;;;;;;;27.10;28.94;98448.63;8412976;28;20234;-74
2022/05/19 09:24:15;;;;;;;8.23;2.30;;;;;;;27.13;28.95;98450.16;8413022;28;20230;-75
2022/05/19 09:28:20;;;;;;;7.13;2.10;;;;;;;27.38;28.32;98436.91;8413024;28;20354;-75
2022/05/19 09:32:26;;;;;;;5.93;2.03;;;;;;;26.78;28.89;98429.91;8414775;28;20239;-75
2022/05/19 09:36:32;;;;;;;7.33;2.07;;;;;;;26.89;28.81;98432.28;8418928;28;20244;-75
2022/05/19 09:40:38;;;;;;;7.43;2.07;;;;;;;27.71;28.09;98432.47;8418976;28;20236;-74
2022/05/19 09:44:51;;;;;;;6.97;2.20;;;;;;;27.46;27.32;98424.47;8418843;28;20395;-74
2022/05/19 09:49:01;;;;;;;8.27;2.87;;;;;;;27.36;27.75;98421.16;8418771;28;20535;-75
2022/05/19 09:53:14;;;;;;;8.27;2.43;;;;;;;27.90;27.59;98433.16;8447457;28;20225;-75
2022/05/19 09:57:24;;;;;;;6.07;1.97;;;;;;;28.35;27.05;98429.94;8452225;28;20230;-75
2022/05/19 10:01:32;;;;;;;6.07;2.00;;;;;;;28.85;26.72;98422.63;8485158;28;20231;-73
2022/05/19 10:05:40;;;;;;;7.70;1.93;;;;;;;28.30;26.43;98426.94;8440842;28;20301;-74
2022/05/19 10:09:48;;;;;;;4.07;1.83;;;;;;;28.69;25.96;98418.19;8451199;28;20425;-74
2022/05/19 10:13:56;;;;;;;3.10;1.40;;;;;;;29.31;26.27;98408.56;8445726;28;20240;-74
2022/05/19 10:18:04;;;;;;;6.57;1.90;;;;;;;29.43;25.62;98404.47;8451542;28;20267;-73
2022/05/19 10:22:24;;;;;;;4.17;1.87;;;;;;;29.20;25.38;98409.81;8451264;28;20234;-74
2022/05/19 10:26:37;;;;;;;4.83;1.67;;;;;;;29.35;25.36;98399.19;8450862;28;20229;-74
2022/05/19 10:31:04;;;;;;;7.83;2.00;;;;;;;29.92;25.39;98393.41;8451110;28;20233;-76
2022/05/19 10:35:19;;;;;;;4.13;1.90;;;;;;;30.28;24.82;98395.38;8451952;28;20296;-75
2022/05/19 10:39:33;;;;;;;9.10;2.10;;;;;;;29.93;24.27;98392.41;8436137;28;20256;-75
2022/05/19 10:43:48;;;;;;;5.23;2.13;;;;;;;30.57;23.77;98396.44;8450370;28;20233;-78
2022/05/19 10:48:35;;;;;;;4.00;1.73;;;;;;;30.75;24.02;98380.84;8450649;28;20230;-74
2022/05/19 10:52:53;;;;;;;3.10;1.87;;;;;;;30.04;24.67;98369.75;8484074;28;20224;-74
2022/05/19 10:57:10;;;;;;;6.40;2.20;;;;;;;29.20;25.21;98365.28;8484044;27;20231;-74
2022/05/19 11:01:23;;;;;;;2.97;1.60;;;;;;;29.49;25.06;98368.25;8483898;28;20239;-75
2022/05/19 11:05:37;;;;;;;4.03;1.80;;;;;;;29.37;25.42;98360.66;8457427;28;20224;-74
2022/05/19 11:09:46;;;;;;;2.30;1.57;;;;;;;30.19;24.41;98361.75;8449665;28;20242;-75
2022/05/19 11:14:03;;;;;;;6.00;1.87;;;;;;;29.55;25.46;98340.84;8443043;28;20233;-75
2022/05/19 11:18:10;;;;;;;5.73;2.10;;;;;;;30.04;25.34;98343.06;8415931;28;20246;-74
2022/05/19 11:22:18;;;;;;;5.37;1.77;;;;;;;30.91;24.19;98346.91;8415768;28;20236;-74
2022/05/19 11:26:26;;;;;;;4.53;1.77;;;;;;;31.05;24.71;98351.34;8415791;28;20233;-74
2022/05/19 11:30:34;;;;;;;5.43;1.70;;;;;;;31.06;24.53;98334.31;8448650;28;20513;-73
2022/05/19 11:34:41;;;;;;;2.50;1.70;;;;;;;31.43;23.85;98334.22;8448887;28;20228;-74
2022/05/19 11:38:51;;;;;;;6.53;1.90;;;;;;;31.15;24.46;98338.50;8448549;28;20232;-74
2022/05/19 11:43:00;;;;;;;5.83;2.00;;;;;;;31.73;23.62;98337.59;8448776;28;20228;-74
2022/05/19 11:47:08;;;;;;;5.73;1.73;;;;;;;32.07;23.95;98331.44;8450902;28;20234;-73
2022/05/19 11:55:45;;;;;;;5.17;1.80;;;;;;;31.33;23.63;98327.34;8481679;28;20235;-74
2022/05/19 11:59:50;;;;;;;4.97;1.80;;;;;;;31.91;23.34;98335.25;8481879;28;20233;-74
2022/05/19 12:04:00;;;;;;;3.90;1.87;;;;;;;31.81;23.69;98336.59;8482357;28;20561;-74
2022/05/19 12:08:13;;;;;;;3.57;1.57;;;;;;;31.93;23.34;98335.06;8481979;28;20510;-74
2022/05/19 12:12:22;;;;;;;2.67;1.50;;;;;;;32.43;24.71;98322.34;8481633;28;20246;-75
2022/05/19 12:16:27;;;;;;;5.27;1.70;;;;;;;32.76;23.93;98324.34;8447646;28;20236;-79
2022/05/19 12:20:52;;;;;;;3.10;1.40;;;;;;;32.62;22.90;98320.81;8447521;28;20248;-72
2022/05/19 12:24:58;;;;;;;6.70;1.97;;;;;;;32.37;22.67;98327.69;8444295;28;20538;-75
2022/05/19 12:29:17;;;;;;;5.63;1.80;;;;;;;32.26;23.20;98315.69;8447726;28;20223;-75
2022/05/19 12:33:24;;;;;;;2.70;1.57;;;;;;;32.20;23.57;98313.81;8472453;28;20238;-75
2022/05/19 12:37:43;;;;;;;2.93;1.67;;;;;;;32.43;23.13;98300.91;8454580;28;20229;-74
2022/05/19 12:41:55;;;;;;;4.33;2.00;;;;;;;32.20;23.06;98295.06;8447209;28;20410;-74
2022/05/19 12:46:01;;;;;;;3.97;1.53;;;;;;;32.50;24.44;98303.59;8447491;28;20251;-73
2022/05/19 12:50:26;;;;;;;2.27;1.30;;;;;;;32.11;22.93;98291.72;8447006;28;20237;-75
2022/05/19 12:54:31;;;;;;;4.73;1.73;;;;;;;31.88;24.38;98286.59;8469444;28;20497;-76
2022/05/19 12:58:51;;;;;;;3.40;1.47;;;;;;;31.72;24.04;98285.91;8454941;28;20234;-74
2022/05/19 13:03:01;;;;;;;6.00;1.60;;;;;;;31.75;23.66;98285.50;8445738;28;20234;-74
2022/05/19 13:07:09;;;;;;;5.33;1.47;;;;;;;31.88;22.61;98294.66;8448996;28;20282;-75
2022/05/19 13:11:14;;;;;;;3.07;1.57;;;;;;;31.84;22.96;98288.03;8453509;28;20419;-74
2022/05/19 13:15:25;;;;;;;3.80;1.70;;;;;;;32.29;24.85;98283.13;8453232;28;20522;-76
2022/05/19 13:19:31;;;;;;;3.87;1.70;;;;;;;32.02;24.05;98284.84;8445295;28;20231;-75
2022/05/19 13:23:41;;;;;;;4.50;1.63;;;;;;;31.88;23.62;98282.06;8453154;28;20231;-74
2022/05/19 13:32:07;;;;;;;4.40;1.70;;;;;;;32.11;24.64;98271.09;8452956;28;20236;-76
2022/05/19 13:36:12;;;;;;;3.90;1.57;;;;;;;31.41;24.45;98264.84;8453083;28;20337;-76
2022/05/19 13:40:18;;;;;;;2.50;1.77;;;;;;;31.71;25.01;98262.81;8452703;28;20304;-77
2022/05/19 13:44:29;;;;;;;2.67;1.73;;;;;;;31.15;26.26;98257.44;8452568;28;20235;-77
2022/05/19 13:48:39;;;;;;;4.27;1.80;;;;;;;31.43;26.39;98261.97;8462850;28;20223;-74
2022/05/19 13:52:46;;;;;;;2.73;1.83;;;;;;;30.97;26.38;98256.03;8467998;28;20585;-76
2022/05/19 13:56:49;;;;;;;5.53;1.87;;;;;;;31.32;26.53;98248.13;8452173;28;20573;-75
2022/05/19 14:00:52;;;;;;;2.77;1.60;;;;;;;31.32;25.47;98241.91;8452178;28;20304;-74
2022/05/19 14:04:56;;;;;;;2.73;1.63;;;;;;;31.41;25.71;98247.97;8451916;28;20259;-74
2022/05/19 14:09:01;;;;;;;4.47;1.50;;;;;;;31.55;24.88;98242.53;8451755;28;20226;-75
2022/05/19 14:13:05;;;;;;;2.00;1.67;;;;;;;31.69;25.47;98231.94;8451452;28;20224;-75
2022/05/19 14:17:08;;;;;;;3.27;1.60;;;;;;;31.46;24.90;98224.13;8451475;28;20232;-76
2022/05/19 14:21:14;;;;;;;6.13;1.90;;;;;;;30.96;24.58;98211.63;8451822;28;20237;-75
2022/05/19 14:25:22;;;;;;;3.23;1.70;;;;;;;30.95;25.94;98209.13;8451486;28;20226;-74
2022/05/19 14:29:27;;;;;;;4.23;1.70;;;;;;;31.24;25.37;98207.31;8484707;28;20228;-73
2022/05/19 14:33:39;;;;;;;5.13;1.80;;;;;;;31.49;25.67;98200.53;8483897;28;20237;-74
2022/05/19 14:37:43;;;;;;;2.73;1.60;;;;;;;31.52;25.64;98192.09;8485025;28;20243;-76
2022/05/19 14:46:12;;;;;;;3.00;1.67;;;;;;;31.55;25.57;98185.53;8484586;28;20240;-76
2022/05/19 14:50:17;;;;;;;2.27;1.63;;;;;;;31.54;25.75;98182.00;8484269;28;20235;-76
2022/05/19 14:54:22;;;;;;;4.13;1.60;;;;;;;31.47;25.53;98173.13;8484370;28;20233;-73
2022/05/19 14:58:33;;;;;;;2.40;1.70;;;;;;;31.46;25.42;98166.13;8457713;28;20225;-75
2022/05/19 15:02:36;;;;;;;3.20;1.70;;;;;;;31.58;25.30;98163.72;8450196;28;20339;-75
2022/05/19 15:06:39;;;;;;;3.40;1.60;;;;;;;31.45;25.90;98160.94;8450053;28;20233;-75
2022/05/19 15:10:42;;;;;;;5.23;1.73;;;;;;;31.31;26.23;98147.47;8449482;28;20248;-74
2022/05/19 15:14:46;;;;;;;2.53;1.50;;;;;;;31.17;25.90;98153.78;8450084;28;20252;-74
2022/05/19 15:18:50;;;;;;;7.97;1.80;;;;;;;30.98;26.95;98153.44;8449789;28;20397;-76
2022/05/19 15:22:55;;;;;;;7.00;1.87;;;;;;;30.93;26.69;98150.50;8449749;28;20232;-75
2022/05/19 15:27:00;;;;;;;4.13;1.90;;;;;;;30.98;27.03;98148.09;8449319;28;20227;-76
2022/05/19 15:31:04;;;;;;;4.10;1.80;;;;;;;31.01;27.14;98149.53;8448905;28;20235;-75
2022/05/19 15:35:08;;;;;;;4.10;1.60;;;;;;;30.96;27.57;98152.81;8449505;28;20233;-75
2022/05/19 15:39:18;;;;;;;5.70;2.20;;;;;;;30.96;27.45;98142.09;8448906;28;20236;-75
2022/05/19 15:43:21;;;;;;;6.50;1.67;;;;;;;30.89;27.83;98146.53;8448867;28;20274;-75
2022/05/19 15:47:29;;;;;;;4.07;1.80;;;;;;;30.73;27.33;98150.31;8481326;28;20223;-75
2022/05/19 15:51:35;;;;;;;4.30;1.70;;;;;;;30.67;27.72;98150.25;8448570;28;20341;-75
2022/05/19 15:55:41;;;;;;;3.73;1.97;;;;;;;30.52;28.18;98151.16;8448604;28;20239;-75
2022/05/19 15:59:44;;;;;;;3.90;1.90;;;;;;;30.47;27.98;98142.06;8448492;28;20230;-75
2022/05/19 16:03:49;;;;;;;5.43;2.07;;;;;;;30.35;28.32;98147.09;8448324;28;20229;-75
2022/05/19 16:07:52;;;;;;;9.93;2.10;;;;;;;30.27;28.70;98147.16;8448245;28;20252;-75
2022/05/19 16:12:04;;;;;;;3.10;1.80;;;;;;;30.18;29.14;98146.47;8448123;28;20227;-75
2022/05/19 16:16:08;;;;;;;4.17;2.03;;;;;;;30.29;28.89;98153.16;8448188;28;20392;-75
2022/05/19 16:20:14;;;;;;;7.00;2.20;;;;;;;30.32;29.25;98155.47;8447798;28;20241;-75
2022/05/19 16:24:17;;;;;;;3.83;1.93;;;;;;;30.15;29.69;98158.34;8447776;28;20238;-75
2022/05/19 16:28:20;;;;;;;4.10;1.90;;;;;;;30.12;29.27;98161.41;8447929;28;20234;-74
2022/05/19 16:32:23;;;;;;;3.50;2.17;;;;;;;30.03;29.94;98157.19;8480906;28;20271;-72
2022/05/19 16:36:28;;;;;;;8.33;2.07;;;;;;;29.95;30.36;98155.47;8480796;28;20230;-73
2022/05/19 16:40:32;;;;;;;7.10;2.27;;;;;;;29.92;30.30;98155.00;8480044;28;20276;-73
2022/05/19 16:44:35;;;;;;;5.87;1.80;;;;;;;29.85;31.25;98148.75;8480360;28;20338;-73
2022/05/19 16:48:39;;;;;;;5.03;2.10;;;;;;;29.72;30.31;98157.38;8470114;28;20429;-74
2022/05/19 16:52:43;;;;;;;5.07;2.30;;;;;;;29.68;30.99;98166.78;8428238;28;20244;-75
2022/05/19 17:01:08;;;;;;;4.37;1.97;;;;;;;29.68;30.85;98164.94;8413392;28;20433;-75
2022/05/19 17:05:12;;;;;;;3.73;2.47;;;;;;;29.65;31.02;98170.66;8413093;28;20555;-75
2022/05/19 17:09:16;;;;;;;3.77;2.43;;;;;;;29.61;31.66;98169.38;8413041;28;20404;-76
2022/05/19 17:13:22;;;;;;;5.73;2.30;;;;;;;29.58;32.27;98159.06;8444751;28;20239;-72
2022/05/19 17:17:25;;;;;;;5.53;2.83;;;;;;;29.53;32.21;98166.78;8479850;28;20226;-75
2022/05/19 17:21:29;;;;;;;6.83;2.60;;;;;;;29.39;32.22;98179.94;8480451;28;20440;-76
2022/05/19 17:25:35;;;;;;;4.60;2.60;;;;;;;29.27;32.60;98181.41;8480289;28;20233;-76
2022/05/19 17:29:37;;;;;;;7.93;2.53;;;;;;;29.25;33.24;98180.78;8480160;28;20226;-75
2022/05/19 17:33:40;;;;;;;7.23;2.70;;;;;;;29.26;33.53;98187.75;8480237;28;20255;-76
2022/05/19 17:37:44;;;;;;;5.80;2.40;;;;;;;29.11;33.43;98182.38;8480138;28;20229;-75
2022/05/19 17:41:48;;;;;;;5.13;2.40;;;;;;;28.99;33.48;98176.63;8480008;28;20237;-77
2022/05/19 17:45:51;;;;;;;8.33;2.60;;;;;;;28.88;33.83;98176.25;8479870;28;20574;-75
2022/05/19 17:49:54;;;;;;;8.27;2.57;;;;;;;28.81;34.02;98170.81;8480014;28;20229;-72
2022/05/19 17:53:57;;;;;;;5.90;2.67;;;;;;;28.72;34.22;98171.88;8483813;28;20232;-82
2022/05/19 17:58:02;;;;;;;6.67;2.43;;;;;;;28.66;34.45;98163.59;8486050;28;20221;-76
2022/05/19 18:02:05;;;;;;;5.17;2.30;;;;;;;28.63;34.78;98149.78;8485568;28;20266;-75
2022/05/19 18:06:08;;;;;;;6.57;2.33;;;;;;;28.56;35.59;98156.84;8485712;28;20230;-75
2022/05/19 18:10:13;;;;;;;4.80;2.67;;;;;;;28.51;35.96;98167.19;8485484;28;20243;-76
2022/05/19 18:18:34;;;;;;;4.37;2.40;;;;;;;28.30;36.97;98184.63;8484053;28;20231;-75
2022/05/19 18:22:37;;;;;;;3.80;2.43;;;;;;;28.21;37.36;98188.34;8485119;28;20280;-75
2022/05/19 18:26:41;;;;;;;3.77;2.30;;;;;;;28.10;37.84;98191.38;8485038;28;20232;-75
2022/05/19 18:30:45;;;;;;;5.27;2.70;;;;;;;28.04;38.45;98190.25;8484723;28;20224;-76
2022/05/19 18:34:49;;;;;;;7.47;2.70;;;;;;;27.92;39.29;98200.47;8484493;28;20232;-74
2022/05/19 18:38:52;;;;;;;6.60;2.67;;;;;;;27.81;39.65;98203.47;8484594;28;20233;-77
2022/05/19 18:47:24;;;;;;;8.13;3.17;;;;;;;27.61;40.12;98214.50;8482532;28;20237;-76
2022/05/19 18:51:28;;;;;;;7.23;2.77;;;;;;;27.49;40.60;98253.94;8466791;28;20395;-76
2022/05/19 18:55:34;;;;;;;40.37;4.13;;;;;;;26.64;37.44;98282.63;8484186;28;20232;-76
2022/05/19 18:59:46;;;;;;;31.80;3.77;;;;;;;25.87;42.74;98346.25;8476062;28;20264;-78
2022/05/19 19:03:54;;;;;;;21.30;4.30;;;;;;;25.16;47.55;98379.78;8448806;28;20242;-76
2022/05/19 19:07:57;;;;;;;26.43;5.17;;;;;;;24.41;48.92;98419.63;8470342;28;20425;-77
2022/05/19 19:12:01;;;;;;;16.23;4.03;;;;;;;24.24;50.95;98407.13;8483665;28;20234;-77
2022/05/19 19:16:07;;;;;;;15.87;3.63;;;;;;;23.54;52.32;98433.78;8483567;28;20243;-77
2022/05/19 19:20:14;;;;;;;14.87;3.37;;;;;;;23.95;49.96;98469.72;8483178;28;20591;-77
2022/05/19 19:24:17;;;;;;;15.70;3.83;;;;;;;24.21;50.52;98484.97;8483200;28;20230;-77
2022/05/19 19:28:21;;;;;;;17.33;3.70;;;;;;;23.83;51.25;98486.69;8482463;28;20521;-77
2022/05/19 19:32:24;;;;;;;21.73;3.70;;;;;;;23.94;51.58;98480.44;8482476;28;20228;-76
2022/05/19 19:36:30;;;;;;;10.50;3.50;;;;;;;23.95;51.34;98512.03;8482718;28;20235;-78
2022/05/19 19:40:35;;;;;;;16.87;3.80;;;;;;;24.20;50.93;98537.06;8482569;28;20236;-77
2022/05/19 19:44:39;;;;;;;9.70;3.20;;;;;;;24.13;51.56;98524.56;8449487;28;20429;-77
2022/05/19 19:48:42;;;;;;;11.77;3.03;;;;;;;24.29;50.69;98526.63;8414842;28;20239;-78
2022/05/19 19:52:46;;;;;;;11.00;3.23;;;;;;;24.34;51.03;98537.63;8440725;28;20236;-77